createdAt,value
2018-12-13T00:00:37.336Z,26.03
2018-12-13T00:03:06.376Z,26.67
2018-12-13T00:05:35.262Z,28.33
2018-12-13T00:08:04.163Z,24.90
2018-12-13T00:10:33.079Z,24.23
2018-12-13T00:13:01.979Z,26.27
2018-12-13T00:15:33.424Z,26.30
2018-12-13T00:18:02.321Z,26.83
2018-12-13T00:20:31.253Z,27.13
2018-12-13T00:23:00.148Z,26.17
2018-12-13T00:25:29.039Z,27.87
2018-12-13T00:27:59.668Z,27.43
2018-12-13T00:30:28.488Z,27.27
2018-12-13T00:32:57.356Z,29.27
2018-12-13T00:35:26.260Z,28.43
2018-12-13T00:37:55.244Z,26.40
2018-12-13T00:40:24.154Z,27.23
2018-12-13T00:42:53.056Z,27.07
2018-12-13T00:45:21.985Z,25.23
2018-12-13T00:47:50.880Z,32.53
2018-12-13T00:50:19.800Z,26.53
2018-12-13T00:52:48.742Z,27.40
2018-12-13T00:55:17.660Z,27.33
2018-12-13T00:57:46.549Z,29.83
2018-12-13T01:00:15.470Z,29.77
2018-12-13T01:02:44.361Z,34.67
2018-12-13T01:05:13.273Z,33.80
2018-12-13T01:07:42.226Z,29.93
2018-12-13T01:10:11.108Z,32.63
2018-12-13T01:12:40.054Z,30.43
2018-12-13T01:15:08.988Z,31.03
2018-12-13T01:17:37.938Z,31.57
2018-12-13T01:20:06.907Z,28.27
2018-12-13T01:22:35.810Z,28.10
2018-12-13T01:25:04.757Z,27.83
2018-12-13T01:27:33.647Z,27.63
2018-12-13T01:30:02.538Z,27.27
2018-12-13T01:32:31.450Z,28.93
2018-12-13T01:35:00.349Z,28.20
2018-12-13T01:37:29.232Z,29.67
2018-12-13T01:39:58.152Z,27.73
2018-12-13T01:42:27.071Z,31.73
2018-12-13T01:44:55.987Z,29.67
2018-12-13T01:47:24.882Z,27.20
2018-12-13T01:49:53.815Z,27.67
2018-12-13T01:52:22.692Z,28.43
2018-12-13T01:54:51.599Z,28.03
2018-12-13T01:57:20.489Z,30.47
2018-12-13T01:59:49.461Z,22.93
2018-12-13T02:02:18.290Z,26.40
2018-12-13T02:04:47.228Z,26.87
2018-12-13T02:07:16.134Z,28.03
2018-12-13T02:09:45.044Z,24.50
2018-12-13T02:12:13.921Z,24.93
2018-12-13T02:14:42.846Z,25.83
2018-12-13T02:17:11.749Z,25.93
2018-12-13T02:19:40.638Z,25.37
2018-12-13T02:22:09.579Z,24.03
2018-12-13T02:24:38.463Z,31.07
2018-12-13T02:27:07.426Z,29.60
2018-12-13T02:29:36.332Z,28.17
2018-12-13T02:32:05.238Z,27.33
2018-12-13T02:34:34.149Z,27.43
2018-12-13T02:37:06.238Z,24.70
2018-12-13T02:39:31.955Z,26.67
2018-12-13T02:42:00.944Z,28.77
2018-12-13T02:44:29.796Z,27.00
2018-12-13T02:46:58.709Z,31.23
2018-12-13T02:49:27.626Z,29.13
2018-12-13T02:51:56.584Z,33.57
2018-12-13T02:54:25.464Z,33.67
2018-12-13T02:56:54.388Z,30.90
2018-12-13T02:59:23.315Z,31.40
2018-12-13T03:01:52.294Z,28.77
2018-12-13T03:04:21.150Z,30.07
2018-12-13T03:06:50.085Z,28.37
2018-12-13T03:09:19.008Z,26.70
2018-12-13T03:11:47.902Z,28.40
2018-12-13T03:14:16.786Z,29.80
2018-12-13T03:16:45.715Z,28.93
2018-12-13T03:19:14.589Z,29.47
2018-12-13T03:21:43.522Z,28.87
2018-12-13T03:24:12.432Z,31.10
2018-12-13T03:26:41.440Z,36.58
2018-12-13T03:29:10.267Z,30.30
2018-12-13T03:31:39.156Z,28.53
2018-12-13T03:34:08.086Z,30.57
2018-12-13T03:36:36.985Z,30.13
2018-12-13T03:39:07.792Z,29.23
2018-12-13T03:41:36.696Z,34.60
2018-12-13T03:44:05.607Z,29.50
2018-12-13T03:46:34.521Z,37.85
2018-12-13T03:49:03.457Z,31.67
2018-12-13T03:51:32.379Z,33.67
2018-12-13T03:54:01.311Z,33.67
2018-12-13T03:56:30.183Z,33.20
2018-12-13T03:58:59.112Z,32.77
2018-12-13T04:01:27.988Z,31.43
2018-12-13T04:03:56.920Z,32.27
2018-12-13T04:06:25.828Z,32.10
2018-12-13T04:08:54.763Z,33.92
2018-12-13T04:11:23.663Z,32.70
2018-12-13T04:13:52.576Z,29.37
2018-12-13T04:16:21.499Z,30.90
2018-12-13T04:18:50.443Z,30.43
2018-12-13T04:21:19.316Z,30.67
2018-12-13T04:23:48.256Z,30.73
2018-12-13T04:26:17.147Z,31.00
2018-12-13T04:28:46.077Z,33.63
2018-12-13T04:31:14.965Z,31.37
2018-12-13T04:33:43.902Z,30.43
2018-12-13T04:36:13.547Z,33.70
2018-12-13T04:38:41.742Z,30.13
2018-12-13T04:41:10.604Z,32.43
2018-12-13T04:43:39.522Z,29.83
2018-12-13T04:46:08.543Z,31.47
2018-12-13T04:48:37.459Z,31.77
2018-12-13T04:51:06.394Z,31.20
2018-12-13T04:53:35.409Z,33.27
2018-12-13T04:56:04.363Z,31.53
2018-12-13T04:58:33.257Z,33.20
2018-12-13T05:01:02.169Z,32.70
2018-12-13T05:03:31.037Z,31.63
2018-12-13T05:05:59.942Z,30.80
2018-12-13T05:08:28.847Z,31.17
2018-12-13T05:10:57.772Z,32.63
2018-12-13T05:13:26.677Z,31.07
2018-12-13T05:15:55.594Z,34.92
2018-12-13T05:18:24.482Z,32.53
2018-12-13T05:20:53.375Z,31.60
2018-12-13T05:23:22.284Z,29.43
2018-12-13T05:25:51.198Z,30.07
2018-12-13T05:28:20.098Z,30.70
2018-12-13T05:30:48.997Z,27.20
2018-12-13T05:33:17.880Z,28.37
2018-12-13T05:35:46.801Z,28.43
2018-12-13T05:38:15.699Z,36.93
2018-12-13T05:40:44.609Z,31.00
2018-12-13T05:43:13.519Z,29.67
2018-12-13T05:45:42.414Z,31.40
2018-12-13T05:48:11.350Z,29.47
2018-12-13T05:50:40.210Z,29.97
2018-12-13T05:53:09.096Z,32.00
2018-12-13T05:55:38.038Z,30.47
2018-12-13T05:58:06.957Z,26.77
2018-12-13T06:00:35.825Z,24.47
2018-12-13T06:03:04.776Z,30.73
2018-12-13T06:05:33.710Z,31.33
2018-12-13T06:08:02.625Z,29.83
2018-12-13T06:10:31.555Z,28.17
2018-12-13T06:13:00.470Z,28.07
2018-12-13T06:15:29.406Z,29.80
2018-12-13T06:17:58.285Z,28.73
2018-12-13T06:20:27.190Z,28.40
2018-12-13T06:22:56.167Z,29.17
2018-12-13T06:25:24.972Z,29.20
2018-12-13T06:27:53.884Z,25.50
2018-12-13T06:30:22.778Z,29.50
2018-12-13T06:32:51.665Z,31.57
2018-12-13T06:35:20.583Z,29.33
2018-12-13T06:37:49.484Z,34.80
2018-12-13T06:40:18.377Z,31.82
2018-12-13T06:42:47.321Z,30.23
2018-12-13T06:45:16.200Z,30.63
2018-12-13T06:47:45.101Z,26.40
2018-12-13T06:50:14.043Z,26.47
2018-12-13T06:52:42.904Z,27.20
2018-12-13T06:55:11.799Z,29.40
2018-12-13T06:57:40.723Z,26.23
2018-12-13T07:00:09.989Z,26.03
2018-12-13T07:02:38.934Z,28.83
2018-12-13T07:05:07.908Z,26.40
2018-12-13T07:07:36.845Z,28.13
2018-12-13T07:10:05.771Z,24.97
2018-12-13T07:12:34.680Z,27.73
2018-12-13T07:15:03.623Z,27.77
2018-12-13T07:17:32.557Z,29.27
2018-12-13T07:20:01.520Z,25.80
2018-12-13T07:22:30.433Z,31.23
2018-12-13T07:24:59.328Z,26.40
2018-12-13T07:27:28.239Z,28.37
2018-12-13T07:29:57.158Z,25.70
2018-12-13T07:32:26.053Z,26.50
2018-12-13T07:35:01.144Z,27.73
2018-12-13T07:37:23.858Z,27.67
2018-12-13T07:39:52.764Z,25.80
2018-12-13T07:42:21.829Z,28.00
2018-12-13T07:44:50.729Z,30.48
2018-12-13T07:47:19.656Z,28.47
2018-12-13T07:49:48.567Z,25.80
2018-12-13T07:52:25.376Z,28.32
2018-12-13T07:54:52.092Z,27.73
2018-12-13T07:57:21.630Z,26.73
2018-12-13T07:59:51.097Z,24.07
2018-12-13T08:02:20.709Z,25.77
2018-12-13T08:04:50.518Z,25.80
2018-12-13T08:07:22.881Z,22.10
2018-12-13T08:09:57.175Z,22.57
2018-12-13T08:12:24.701Z,23.20
2018-12-13T08:14:55.751Z,24.77
2018-12-13T08:17:26.745Z,24.50
2018-12-13T08:19:56.591Z,25.13
2018-12-13T08:22:26.235Z,23.00
2018-12-13T08:25:00.583Z,23.07
2018-12-13T08:27:30.081Z,25.23
2018-12-13T08:30:10.618Z,23.20
2018-12-13T08:32:39.962Z,23.13
2018-12-13T08:35:10.382Z,22.53
2018-12-13T08:37:40.264Z,24.17
2018-12-13T08:40:11.735Z,22.03
2018-12-13T08:42:41.284Z,22.77
2018-12-13T08:45:10.734Z,20.33
2018-12-13T08:47:43.680Z,22.90
2018-12-13T08:50:13.246Z,24.13
2018-12-13T08:52:42.702Z,23.32
2018-12-13T08:55:13.474Z,20.70
2018-12-13T08:57:42.883Z,22.43
2018-12-13T09:00:12.503Z,20.87
2018-12-13T09:02:45.892Z,20.83
2018-12-13T09:05:20.691Z,20.33
2018-12-13T09:07:50.032Z,22.93
2018-12-13T09:10:19.153Z,22.33
2018-12-13T09:12:51.076Z,21.90
2018-12-13T09:15:23.195Z,21.40
2018-12-13T09:17:55.207Z,22.37
2018-12-13T09:20:24.763Z,23.03
2018-12-13T09:22:56.813Z,24.18
2018-12-13T09:25:26.118Z,22.57
2018-12-13T09:27:55.995Z,21.57
2018-12-13T09:30:29.313Z,19.43
2018-12-13T09:32:59.803Z,21.90
2018-12-13T09:35:31.414Z,22.13
2018-12-13T09:38:02.447Z,20.33
2018-12-13T09:40:30.471Z,22.03
2018-12-13T09:43:04.409Z,20.50
2018-12-13T09:45:41.299Z,22.58
2018-12-13T09:48:16.522Z,19.97
2018-12-13T09:50:50.694Z,21.20
2018-12-13T09:53:22.769Z,20.57
2018-12-13T09:55:57.641Z,18.03
2018-12-13T09:58:27.433Z,17.90
2018-12-13T10:01:01.735Z,18.10
2018-12-13T10:03:41.001Z,20.93
2018-12-13T10:06:23.140Z,19.43
2018-12-13T10:08:54.833Z,19.60
2018-12-13T10:11:46.772Z,16.93
2018-12-13T10:14:16.239Z,16.47
2018-12-13T10:16:45.687Z,18.37
2018-12-13T10:19:17.837Z,17.23
2018-12-13T10:21:48.984Z,17.90
2018-12-13T10:24:20.732Z,18.37
2018-12-13T10:26:52.775Z,18.00
2018-12-13T10:29:29.887Z,18.00
2018-12-13T10:31:57.494Z,20.75
2018-12-13T10:34:26.973Z,17.47
2018-12-13T10:36:56.268Z,16.70
2018-12-13T10:39:28.122Z,17.00
2018-12-13T10:42:00.019Z,19.07
2018-12-13T10:44:38.573Z,19.27
2018-12-13T10:47:08.063Z,17.97
2018-12-13T10:49:38.168Z,18.17
2018-12-13T10:52:10.086Z,18.50
2018-12-13T10:54:45.655Z,19.90
2018-12-13T10:57:14.987Z,19.00
2018-12-13T10:59:47.349Z,21.27
2018-12-13T11:02:34.762Z,18.27
2018-12-13T11:05:06.099Z,20.37
2018-12-13T11:07:33.791Z,19.47
2018-12-13T11:10:10.358Z,22.13
2018-12-13T11:12:42.274Z,21.90
2018-12-13T11:15:19.250Z,23.50
2018-12-13T11:17:49.536Z,24.23
2018-12-13T11:20:18.590Z,22.60
2018-12-13T11:22:55.271Z,26.10
2018-12-13T11:25:27.478Z,23.90
2018-12-13T11:28:33.667Z,26.27
2018-12-13T11:31:03.080Z,29.37
2018-12-13T11:33:32.304Z,27.40
2018-12-13T11:36:04.642Z,26.57
2018-12-13T11:38:33.743Z,27.47
2018-12-13T11:41:06.023Z,31.33
2018-12-13T11:43:37.871Z,25.00
2018-12-13T11:46:10.085Z,26.80
2018-12-13T11:48:39.501Z,28.63
2018-12-13T11:51:09.286Z,32.03
2018-12-13T11:53:44.265Z,31.73
2018-12-13T11:56:14.472Z,29.20
2018-12-13T11:58:49.330Z,28.20
2018-12-13T12:01:27.159Z,28.97
2018-12-13T12:03:58.276Z,31.00
2018-12-13T12:06:32.757Z,32.70
2018-12-13T12:09:05.080Z,27.17
2018-12-13T12:11:37.077Z,29.90
2018-12-13T12:14:06.566Z,32.23
2018-12-13T12:16:38.349Z,29.30
2018-12-13T12:19:07.594Z,30.60
2018-12-13T12:21:36.778Z,31.07
2018-12-13T12:24:12.081Z,29.53
2018-12-13T12:26:44.708Z,29.07
2018-12-13T12:29:14.727Z,30.83
2018-12-13T12:31:45.551Z,31.03
2018-12-13T12:34:21.855Z,33.27
2018-12-13T12:36:54.682Z,32.40
2018-12-13T12:39:24.648Z,29.87
2018-12-13T12:41:52.166Z,30.53
2018-12-13T12:44:21.955Z,30.00
2018-12-13T12:46:54.040Z,33.07
2018-12-13T12:49:27.156Z,30.43
2018-12-13T12:52:04.926Z,32.80
2018-12-13T12:54:40.157Z,33.57
2018-12-13T12:57:07.646Z,30.73
2018-12-13T12:59:40.465Z,27.10
2018-12-13T13:02:13.250Z,29.27
2018-12-13T13:04:43.583Z,28.30
2018-12-13T13:07:24.105Z,27.23
2018-12-13T13:09:57.694Z,28.60
2018-12-13T13:12:28.772Z,28.33
2018-12-13T13:14:58.626Z,27.47
2018-12-13T13:17:28.568Z,27.53
2018-12-13T13:19:57.869Z,27.98
2018-12-13T13:22:27.928Z,26.70
2018-12-13T13:25:03.288Z,26.17
2018-12-13T13:27:32.802Z,26.73
2018-12-13T13:30:09.095Z,25.23
2018-12-13T13:32:39.196Z,23.70
2018-12-13T13:35:12.429Z,27.13
2018-12-13T13:37:48.559Z,25.27
2018-12-13T13:40:18.512Z,23.73
2018-12-13T13:42:49.747Z,25.13
2018-12-13T13:45:19.065Z,24.20
2018-12-13T13:47:48.535Z,24.07
2018-12-13T13:50:20.510Z,25.70
2018-12-13T13:52:50.009Z,22.97
2018-12-13T13:55:19.260Z,21.03
2018-12-13T13:57:49.024Z,22.40
2018-12-13T14:00:18.223Z,22.60
2018-12-13T14:02:47.399Z,21.23
2018-12-13T14:05:22.244Z,23.43
2018-12-13T14:07:54.212Z,19.73
2018-12-13T14:10:26.085Z,25.77
2018-12-13T14:12:55.981Z,22.80
2018-12-13T14:15:30.941Z,23.47
2018-12-13T14:18:00.519Z,24.40
2018-12-13T14:20:33.027Z,20.23
2018-12-13T14:23:02.348Z,20.27
2018-12-13T14:25:31.589Z,21.20
2018-12-13T14:28:06.827Z,21.25
2018-12-13T14:30:38.777Z,18.83
2018-12-13T14:33:14.119Z,18.93
2018-12-13T14:35:43.660Z,18.77
2018-12-13T14:38:13.402Z,16.93
2018-12-13T14:40:42.811Z,16.03
2018-12-13T14:43:15.594Z,18.67
2018-12-13T14:45:45.338Z,16.77
2018-12-13T14:48:14.875Z,17.00
2018-12-13T14:50:45.329Z,17.73
2018-12-13T14:53:19.303Z,15.40
2018-12-13T14:55:48.714Z,18.53
2018-12-13T14:58:18.157Z,18.48
2018-12-13T15:00:47.360Z,16.03
2018-12-13T15:03:22.524Z,15.97
2018-12-13T15:05:52.816Z,16.47
2018-12-13T15:08:22.322Z,15.33
2018-12-13T15:10:51.866Z,14.40
2018-12-13T15:13:21.395Z,16.75
2018-12-13T15:15:50.761Z,16.07
2018-12-13T15:18:20.254Z,14.80
2018-12-13T15:20:49.521Z,13.57
2018-12-13T15:23:18.947Z,15.33
2018-12-13T15:25:51.004Z,14.10
2018-12-13T15:28:25.148Z,15.30
2018-12-13T15:31:07.490Z,17.13
2018-12-13T15:33:39.102Z,14.43
2018-12-13T15:36:10.870Z,13.03
2018-12-13T15:38:43.175Z,15.57
2018-12-13T15:41:15.001Z,15.67
2018-12-13T15:43:50.295Z,15.53
2018-12-13T15:46:19.985Z,14.33
2018-12-13T15:48:49.274Z,17.00
2018-12-13T15:51:18.894Z,14.57
2018-12-13T15:53:48.413Z,14.80
2018-12-13T15:56:17.984Z,15.90
2018-12-13T15:58:47.346Z,14.23
2018-12-13T16:01:17.668Z,15.73
2018-12-13T16:03:47.254Z,14.77
2018-12-13T16:06:16.674Z,14.83
2018-12-13T16:08:48.663Z,17.47
2018-12-13T16:11:17.989Z,15.00
2018-12-13T16:13:47.340Z,14.77
2018-12-13T16:16:19.950Z,17.20
2018-12-13T16:18:49.254Z,18.05
2018-12-13T16:21:22.763Z,17.63
2018-12-13T16:23:52.329Z,15.80
2018-12-13T16:26:22.574Z,14.70
2018-12-13T16:28:57.087Z,15.87
2018-12-13T16:31:39.444Z,14.10
2018-12-13T16:34:11.778Z,14.77
2018-12-13T16:36:41.311Z,15.50
2018-12-13T16:39:13.593Z,15.97
2018-12-13T16:41:45.885Z,17.90
2018-12-13T16:44:17.905Z,17.62
2018-12-13T16:46:47.380Z,14.23
2018-12-13T16:49:16.952Z,15.47
2018-12-13T16:51:46.152Z,15.43
2018-12-13T16:54:17.798Z,14.67
2018-12-13T16:56:47.050Z,14.53
2018-12-13T16:59:16.734Z,13.70
2018-12-13T17:01:46.096Z,13.93
2018-12-13T17:04:24.395Z,14.57
2018-12-13T17:06:54.041Z,14.53
2018-12-13T17:09:23.670Z,14.20
2018-12-13T17:11:53.486Z,14.27
2018-12-13T17:14:25.992Z,17.82
2018-12-13T17:16:57.871Z,13.03
2018-12-13T17:19:29.965Z,13.73
2018-12-13T17:22:01.090Z,14.63
2018-12-13T17:24:29.088Z,13.83
2018-12-13T17:26:59.747Z,14.47
2018-12-13T17:29:29.448Z,16.30
2018-12-13T17:32:03.067Z,13.63
2018-12-13T17:34:31.976Z,13.70
2018-12-13T17:37:00.889Z,15.17
2018-12-13T17:39:29.899Z,13.97
2018-12-13T17:41:58.839Z,15.23
2018-12-13T17:44:27.702Z,13.70
2018-12-13T17:46:56.605Z,17.30
2018-12-13T17:49:25.493Z,15.40
2018-12-13T17:51:54.405Z,14.30
2018-12-13T17:54:23.331Z,14.67
2018-12-13T17:56:52.251Z,13.67
2018-12-13T17:59:21.132Z,13.67
2018-12-13T18:01:50.014Z,14.97
2018-12-13T18:04:18.946Z,13.47
2018-12-13T18:06:47.838Z,12.87
2018-12-13T18:09:16.734Z,14.00
2018-12-13T18:11:45.612Z,13.40
2018-12-13T18:14:14.543Z,14.17
2018-12-13T18:16:43.716Z,16.12
2018-12-13T18:19:12.324Z,14.47
2018-12-13T18:21:41.215Z,15.20
2018-12-13T18:24:10.133Z,13.67
2018-12-13T18:26:39.034Z,13.40
2018-12-13T18:29:07.966Z,12.47
2018-12-13T18:31:36.911Z,13.97
2018-12-13T18:34:05.803Z,14.00
2018-12-13T18:36:34.734Z,14.83
2018-12-13T18:39:05.041Z,15.60
2018-12-13T18:41:33.968Z,14.20
2018-12-13T18:44:02.861Z,12.17
2018-12-13T18:46:31.791Z,13.70
2018-12-13T18:49:00.705Z,12.03
2018-12-13T18:51:29.630Z,13.90
2018-12-13T18:53:58.508Z,12.03
2018-12-13T18:56:27.405Z,16.60
2018-12-13T18:58:56.337Z,68.50
2018-12-13T19:01:25.248Z,76.40
2018-12-13T19:03:54.166Z,24.30
2018-12-13T19:06:23.131Z,16.43
2018-12-13T19:08:51.977Z,12.90
2018-12-13T19:11:20.883Z,12.97
2018-12-13T19:13:49.829Z,12.57
2018-12-13T19:16:18.665Z,11.87
2018-12-13T19:18:47.543Z,13.43
2018-12-13T19:21:16.470Z,11.03
2018-12-13T19:23:45.384Z,12.73
2018-12-13T19:26:14.263Z,12.27
2018-12-13T19:28:43.187Z,12.83
2018-12-13T19:31:12.211Z,13.10
2018-12-13T19:33:41.082Z,13.80
2018-12-13T19:36:09.982Z,11.20
2018-12-13T19:38:38.886Z,13.63
2018-12-13T19:41:07.817Z,11.33
2018-12-13T19:43:36.745Z,11.73
2018-12-13T19:46:05.680Z,13.10
2018-12-13T19:48:34.588Z,11.37
2018-12-13T19:51:03.520Z,11.70
2018-12-13T19:53:32.449Z,10.17
2018-12-13T19:56:01.340Z,10.67
2018-12-13T19:58:30.264Z,11.80
2018-12-13T20:00:59.160Z,9.87
2018-12-13T20:03:28.088Z,10.90
2018-12-13T20:05:57.004Z,11.57
2018-12-13T20:08:25.867Z,11.53
2018-12-13T20:10:54.915Z,9.33
2018-12-13T20:13:23.669Z,10.83
2018-12-13T20:15:52.542Z,10.93
2018-12-13T20:18:21.470Z,53.83
2018-12-13T20:20:50.365Z,15.80
2018-12-13T20:23:19.232Z,13.10
2018-12-13T20:25:48.154Z,10.07
2018-12-13T20:28:17.092Z,12.27
2018-12-13T20:30:45.975Z,10.67
2018-12-13T20:33:14.899Z,10.23
2018-12-13T20:35:43.815Z,9.93
2018-12-13T20:38:12.721Z,9.13
2018-12-13T20:40:41.628Z,11.63
2018-12-13T20:43:10.502Z,9.90
2018-12-13T20:45:39.407Z,9.37
2018-12-13T20:48:08.400Z,11.80
2018-12-13T20:50:37.264Z,10.60
2018-12-13T20:53:06.194Z,10.37
2018-12-13T20:55:35.091Z,12.23
2018-12-13T20:58:04.022Z,9.60
2018-12-13T21:00:32.922Z,10.20
2018-12-13T21:03:01.851Z,12.23
2018-12-13T21:05:30.750Z,11.40
2018-12-13T21:08:09.038Z,10.20
2018-12-13T21:10:39.162Z,9.83
2018-12-13T21:13:08.070Z,10.43
2018-12-13T21:15:36.979Z,10.37
2018-12-13T21:18:05.952Z,12.00
2018-12-13T21:20:34.841Z,11.57
2018-12-13T21:23:03.756Z,10.40
2018-12-13T21:25:32.640Z,11.53
2018-12-13T21:28:01.553Z,11.93
2018-12-13T21:30:30.458Z,13.17
2018-12-13T21:33:00.582Z,11.80
2018-12-13T21:35:28.315Z,12.00
2018-12-13T21:37:57.194Z,12.40
2018-12-13T21:40:26.141Z,12.80
2018-12-13T21:42:55.011Z,11.53
2018-12-13T21:45:23.889Z,10.77
2018-12-13T21:47:53.674Z,10.53
2018-12-13T21:50:21.690Z,13.57
2018-12-13T21:52:50.592Z,13.73
2018-12-13T21:57:57.504Z,12.67
2018-12-13T22:00:26.352Z,12.60
2018-12-13T22:02:55.344Z,11.17
2018-12-13T22:05:24.236Z,14.37
2018-12-13T22:07:53.152Z,10.57
2018-12-13T22:10:22.079Z,12.47
2018-12-13T22:12:50.982Z,15.10
2018-12-13T22:15:19.863Z,14.50
2018-12-13T22:17:50.852Z,12.77
2018-12-13T22:20:19.758Z,11.73
2018-12-13T22:22:48.666Z,13.63
2018-12-13T22:25:17.613Z,12.57
2018-12-13T22:27:48.040Z,15.90
2018-12-13T22:30:16.875Z,15.48
2018-12-13T22:32:45.794Z,13.90
2018-12-13T22:35:14.681Z,13.80
2018-12-13T22:37:43.578Z,13.50
2018-12-13T22:40:12.487Z,13.97
2018-12-13T22:42:41.360Z,15.20
2018-12-13T22:45:10.303Z,13.93
2018-12-13T22:47:39.200Z,14.07
2018-12-13T22:50:08.148Z,14.80
2018-12-13T22:52:37.040Z,16.33
2018-12-13T22:55:06.011Z,13.93
2018-12-13T22:57:34.886Z,13.43
2018-12-13T23:00:03.827Z,13.10
2018-12-13T23:02:32.779Z,14.63
2018-12-13T23:05:01.667Z,13.63
2018-12-13T23:07:30.577Z,14.20
2018-12-13T23:09:59.467Z,13.40
2018-12-13T23:12:28.424Z,15.10
2018-12-13T23:14:57.342Z,13.17
2018-12-13T23:17:26.243Z,14.20
2018-12-13T23:19:55.140Z,15.57
2018-12-13T23:22:24.033Z,14.10
2018-12-13T23:24:52.953Z,13.20
2018-12-13T23:27:21.856Z,13.73
2018-12-13T23:29:50.751Z,15.20
2018-12-13T23:32:19.642Z,14.27
2018-12-13T23:34:48.543Z,15.37
2018-12-13T23:37:17.423Z,14.43
2018-12-13T23:39:46.355Z,14.30
2018-12-13T23:42:15.271Z,16.13
2018-12-13T23:44:44.197Z,15.80
2018-12-13T23:47:13.112Z,63.47
2018-12-13T23:49:42.003Z,28.57
2018-12-13T23:52:10.907Z,17.97
2018-12-13T23:54:39.797Z,15.97
2018-12-13T23:57:08.727Z,17.10
2018-12-13T23:59:37.589Z,17.70
